Time;durP1;ratioP1;P1;durP2;ratioP2;P2;SDS_P1;SDS_P2;PMS_P1;PMS_P2;Temp;Humidity;BMP_temperature;BMP_pressure;BME280_temperature;BME280_humidity;BME280_pressure;Samples;Min_cycle;Max_cycle;Signal;HPM_P1;HPM_P2
2022/01/20 00:00:55;;;;;;;13.02;3.03;;;14.70;49.40;13.80;101682.00;;;;5038483;28;20076;-70
2022/01/20 00:03:42;;;;;;;13.85;2.70;;;14.70;49.40;13.80;101673.00;;;;5032070;28;20087;-70
2022/01/20 00:27:39;;;;;;;15.68;2.10;;;14.60;49.40;13.70;101676.00;;;;5012405;28;20053;-70
2022/01/20 00:30:38;;;;;;;12.38;2.67;;;14.60;49.40;13.70;101671.00;;;;5013369;28;20053;-70
2022/01/20 00:33:35;;;;;;;9.02;2.17;;;14.60;49.40;13.70;101667.00;;;;5031912;28;20048;-70
2022/01/20 00:39:22;;;;;;;12.00;2.20;;;14.60;49.40;13.70;101674.00;;;;5035729;28;20056;-70
2022/01/20 00:42:08;;;;;;;14.40;2.80;;;14.60;49.30;13.70;101665.00;;;;5026368;28;20052;-70
2022/01/20 00:44:52;;;;;;;13.13;2.28;;;14.60;49.30;13.70;101667.00;;;;5025968;28;20087;-70
2022/01/20 00:47:37;;;;;;;12.65;2.35;;;14.60;49.30;13.70;101669.00;;;;5031252;28;20109;-70
2022/01/20 00:50:24;;;;;;;10.52;1.85;;;14.50;49.20;13.70;101658.00;;;;5030094;28;20065;-70
2022/01/20 00:53:09;;;;;;;9.02;2.08;;;14.50;49.20;13.70;101672.00;;;;5029988;28;20555;-70
2022/01/20 00:55:53;;;;;;;10.18;2.10;;;14.50;49.20;13.70;101672.00;;;;5031822;28;20179;-70
2022/01/20 00:58:38;;;;;;;10.70;1.85;;;14.50;49.10;13.70;101664.00;;;;5023137;28;20048;-70
2022/01/20 01:01:25;;;;;;;11.27;2.22;;;14.50;49.20;13.70;101671.00;;;;5025532;28;20449;-70
2022/01/20 01:04:10;;;;;;;8.10;1.95;;;14.50;49.20;13.70;101667.00;;;;5035146;28;20382;-70
2022/01/20 01:09:52;;;;;;;11.32;2.00;;;14.50;49.20;13.70;101663.00;;;;5035252;28;20099;-70
2022/01/20 01:12:50;;;;;;;12.05;2.22;;;14.50;49.20;13.70;101666.00;;;;5027383;28;20120;-70
2022/01/20 01:15:42;;;;;;;6.05;1.70;;;14.50;49.20;13.70;101666.00;;;;5028548;28;20494;-70
2022/01/20 01:21:41;;;;;;;10.95;2.50;;;14.50;49.30;13.60;101666.00;;;;5028211;28;20402;-70
2022/01/20 01:24:26;;;;;;;7.18;1.67;;;14.50;49.30;13.60;101655.00;;;;5034763;28;20043;-70
2022/01/20 01:27:11;;;;;;;8.88;2.17;;;14.50;49.30;13.60;101655.00;;;;5027495;28;20099;-70
2022/01/20 01:32:52;;;;;;;9.32;1.85;;;14.50;49.40;13.60;101658.00;;;;5029649;28;20052;-70
2022/01/20 01:35:40;;;;;;;7.75;1.75;;;14.40;49.40;13.60;101661.00;;;;5031483;28;20040;-70
2022/01/20 01:38:37;;;;;;;8.73;2.30;;;14.50;49.40;13.60;101672.00;;;;5033262;28;20049;-70
2022/01/20 01:41:33;;;;;;;12.05;2.05;;;14.50;49.40;13.60;101663.00;;;;5031402;28;20047;-70
2022/01/20 01:44:23;;;;;;;10.73;1.95;;;14.50;49.40;13.60;101666.00;;;;5029557;28;20044;-70
2022/01/20 01:47:08;;;;;;;10.35;1.95;;;14.50;49.40;13.60;101669.00;;;;5025323;28;20179;-70
2022/01/20 01:49:53;;;;;;;9.15;2.03;;;14.40;49.40;13.60;101667.00;;;;5031800;28;20521;-70
2022/01/20 01:52:37;;;;;;;5.32;1.40;;;14.40;49.40;13.60;101665.00;;;;5027750;28;20140;-70
2022/01/20 01:55:22;;;;;;;9.57;1.63;;;14.40;49.40;13.60;101663.00;;;;5028356;28;20049;-70
2022/01/20 01:58:07;;;;;;;9.13;1.80;;;14.40;49.40;13.60;101664.00;;;;5028562;28;20391;-70
2022/01/20 02:00:51;;;;;;;9.48;2.05;;;14.40;49.40;13.60;101658.00;;;;5035682;28;20176;-70
2022/01/20 02:03:45;;;;;;;8.82;1.92;;;14.40;49.40;13.60;101657.00;;;;5038304;28;20122;-70
2022/01/20 02:21:09;;;;;;;9.90;1.70;;;14.40;49.40;13.60;101638.00;;;;5028265;28;20048;-70
2022/01/20 02:23:54;;;;;;;9.23;1.70;;;14.40;49.40;13.60;101630.00;;;;5034046;28;20051;-70
2022/01/20 02:26:38;;;;;;;7.05;1.55;;;14.40;49.40;13.60;101631.00;;;;5024890;28;20052;-70
2022/01/20 02:29:23;;;;;;;8.05;1.70;;;14.40;49.40;13.60;101633.00;;;;5035791;28;20039;-70
2022/01/20 02:32:08;;;;;;;8.40;1.75;;;14.40;49.40;13.60;101635.00;;;;5027108;28;20120;-70
2022/01/20 02:34:53;;;;;;;6.90;1.70;;;14.40;49.40;13.60;101638.00;;;;5014480;28;20504;-70
2022/01/20 02:37:38;;;;;;;7.13;1.42;;;14.40;49.40;13.60;101649.00;;;;5033940;28;20076;-70
2022/01/20 02:46:30;;;;;;;5.00;1.27;;;14.40;49.40;13.60;101655.00;;;;5028565;28;20036;-70
2022/01/20 02:49:15;;;;;;;8.38;1.90;;;14.40;49.40;13.60;101658.00;;;;5035173;28;20409;-70
2022/01/20 02:52:01;;;;;;;7.05;1.45;;;14.40;49.40;13.60;101660.00;;;;5027255;28;20072;-70
2022/01/20 02:54:45;;;;;;;6.15;1.25;;;14.40;49.40;13.60;101652.00;;;;5036466;28;20077;-70
2022/01/20 02:57:30;;;;;;;9.43;1.80;;;14.40;49.40;13.60;101654.00;;;;5024165;28;20053;-70
2022/01/20 03:00:15;;;;;;;7.28;1.60;;;14.40;49.40;13.60;101657.00;;;;5011659;28;20048;-70
2022/01/20 03:03:02;;;;;;;6.85;1.30;;;14.40;49.30;13.60;101656.00;;;;5009803;28;20532;-70
2022/01/20 03:05:47;;;;;;;8.15;1.55;;;14.40;49.30;13.60;101661.00;;;;5025652;28;20052;-70
2022/01/20 03:08:31;;;;;;;7.43;1.25;;;14.40;49.30;13.60;101665.00;;;;5027648;28;20125;-70
2022/01/20 03:11:16;;;;;;;7.20;1.50;;;14.40;49.30;13.50;101655.00;;;;5026139;28;20048;-70
2022/01/20 03:14:00;;;;;;;11.85;2.00;;;14.40;49.30;13.50;101658.00;;;;5027781;28;20048;-70
2022/01/20 03:16:45;;;;;;;5.90;0.88;;;14.40;49.30;13.50;101651.00;;;;4996626;28;20107;-70
2022/01/20 03:19:30;;;;;;;5.65;1.40;;;14.40;49.30;13.50;101653.00;;;;5027263;28;20049;-70
2022/01/20 03:22:15;;;;;;;5.82;1.00;;;14.40;49.20;13.50;101659.00;;;;5023087;28;20049;-70
2022/01/20 03:24:59;;;;;;;4.90;1.30;;;14.40;49.30;13.50;101651.00;;;;5006262;28;20096;-70
2022/01/20 03:27:44;;;;;;;6.10;1.10;;;14.40;49.30;13.50;101663.00;;;;5028167;28;20056;-70
2022/01/20 03:30:28;;;;;;;6.22;1.15;;;14.40;49.40;13.50;101664.00;;;;5023916;28;20099;-70
2022/01/20 03:33:13;;;;;;;8.60;1.83;;;14.40;49.40;13.50;101678.00;;;;5024931;28;20044;-70
2022/01/20 03:35:57;;;;;;;4.47;0.90;;;14.40;49.40;13.50;101674.00;;;;5028345;28;20514;-70
2022/01/20 03:38:42;;;;;;;4.07;1.30;;;14.40;49.40;13.60;101651.00;;;;5027264;28;20136;-70
2022/01/20 03:41:27;;;;;;;5.00;1.00;;;14.40;49.40;13.60;101655.00;;;;5015750;28;21100;-70
2022/01/20 03:44:11;;;;;;;5.68;1.00;;;14.40;49.40;13.60;101652.00;;;;5027878;28;20102;-70
2022/01/20 03:46:58;;;;;;;5.50;1.10;;;14.40;49.30;13.60;101662.00;;;;5023466;28;20035;-70
2022/01/20 03:49:55;;;;;;;7.03;0.98;;;14.40;49.30;13.60;101664.00;;;;5027044;28;20114;-70
2022/01/20 03:52:39;;;;;;;5.32;1.00;;;14.40;49.30;13.60;101664.00;;;;5017513;28;20075;-70
2022/01/20 03:55:24;;;;;;;4.88;1.15;;;14.40;49.20;13.60;101682.00;;;;5023803;28;20406;-70
2022/01/20 03:58:09;;;;;;;4.68;0.75;;;14.40;49.20;13.60;101672.00;;;;5025247;28;20045;-70
2022/01/20 04:00:53;;;;;;;2.63;0.50;;;14.50;49.30;13.60;101678.00;;;;5028237;28;20230;-70
2022/01/20 04:03:38;;;;;;;3.05;0.85;;;14.40;49.30;13.60;101684.00;;;;5029890;28;20095;-70
2022/01/20 04:06:23;;;;;;;4.07;0.80;;;14.50;49.40;13.60;101703.00;;;;5026366;28;20099;-70
2022/01/20 04:09:08;;;;;;;3.10;0.63;;;14.50;49.50;13.60;101703.00;;;;5032708;28;20110;-70
2022/01/20 04:11:52;;;;;;;5.03;1.15;;;14.50;49.40;13.60;101713.00;;;;5030651;28;20437;-70
2022/01/20 04:14:45;;;;;;;1.95;0.80;;;14.50;49.40;13.60;101718.00;;;;5024678;28;20096;-70
2022/01/20 04:17:31;;;;;;;3.40;0.75;;;14.50;49.50;13.60;101714.00;;;;5029258;28;20552;-70
2022/01/20 04:20:16;;;;;;;2.45;0.70;;;14.50;49.50;13.70;101723.00;;;;5027528;28;20052;-70
2022/01/20 04:23:00;;;;;;;2.92;0.63;;;14.50;49.60;13.70;101730.00;;;;5022066;28;20107;-70
2022/01/20 04:25:45;;;;;;;4.60;0.70;;;14.50;49.70;13.70;101737.00;;;;5030632;28;20116;-70
2022/01/20 04:28:29;;;;;;;4.47;0.80;;;14.50;49.60;13.70;101734.00;;;;4999575;28;20094;-70
2022/01/20 04:31:14;;;;;;;3.55;0.55;;;14.50;49.50;13.70;101740.00;;;;5027733;28;20425;-70
2022/01/20 04:33:59;;;;;;;3.08;0.63;;;14.50;49.50;13.70;101741.00;;;;5029511;28;20378;-70
2022/01/20 04:36:45;;;;;;;3.40;0.80;;;14.50;49.60;13.70;101741.00;;;;5011530;28;20098;-70
2022/01/20 04:39:32;;;;;;;3.40;0.50;;;14.50;49.60;13.70;101741.00;;;;5026843;28;20048;-70
2022/01/20 04:42:18;;;;;;;4.43;0.82;;;14.60;49.70;13.70;101747.00;;;;5029415;28;20410;-70
2022/01/20 04:45:08;;;;;;;1.50;0.50;;;14.60;49.70;13.80;101747.00;;;;5026439;28;20040;-70
2022/01/20 04:57:05;;;;;;;1.83;0.47;;;14.70;49.70;13.80;101778.00;;;;5030163;28;20098;-70
2022/01/20 04:57:20;;;;;;;2.13;0.43;;;14.70;49.60;13.80;101773.00;;;;5026873;28;20502;-70
2022/01/20 05:00:05;;;;;;;1.27;0.30;;;14.70;49.60;13.80;101769.00;;;;5034323;28;20052;-70
2022/01/20 05:02:50;;;;;;;2.65;0.45;;;14.70;49.60;13.90;101755.00;;;;5032004;28;20052;-70
2022/01/20 05:05:35;;;;;;;3.60;0.73;;;14.70;49.40;13.90;101768.00;;;;5029547;28;20122;-70
2022/01/20 05:08:22;;;;;;;1.98;0.70;;;14.70;49.40;13.90;101772.00;;;;5031224;28;20065;-70
2022/01/20 05:11:09;;;;;;;2.13;0.45;;;14.70;49.40;13.90;101772.00;;;;5030017;28;20402;-70
2022/01/20 05:13:53;;;;;;;1.00;0.30;;;14.70;49.30;13.90;101782.00;;;;5029291;28;20067;-70
2022/01/20 05:16:38;;;;;;;3.40;0.60;;;14.80;49.30;13.90;101786.00;;;;5031693;28;20128;-70
2022/01/20 05:19:23;;;;;;;0.93;0.38;;;14.80;49.30;13.90;101776.00;;;;5031406;28;20466;-70
2022/01/20 05:22:08;;;;;;;2.30;0.60;;;14.80;49.30;13.90;101786.00;;;;5014183;28;20090;-70
2022/01/20 05:24:52;;;;;;;2.03;0.50;;;14.80;49.20;13.90;101792.00;;;;5031177;28;20137;-70
2022/01/20 05:27:37;;;;;;;3.35;0.68;;;14.80;49.20;13.90;101797.00;;;;5034083;28;20095;-70
2022/01/20 05:30:21;;;;;;;3.63;0.43;;;14.80;49.20;13.90;101788.00;;;;5021952;28;20128;-70
2022/01/20 05:33:06;;;;;;;2.83;0.75;;;14.80;49.20;13.90;101797.00;;;;5031436;28;20044;-70
2022/01/20 05:35:51;;;;;;;1.73;0.50;;;14.80;49.10;13.90;101800.00;;;;5030969;28;20045;-70
2022/01/20 05:38:35;;;;;;;1.92;0.47;;;14.80;49.20;13.90;101791.00;;;;5024806;28;20239;-70
2022/01/20 05:41:20;;;;;;;5.93;0.82;;;14.80;49.20;13.90;101803.00;;;;5031427;28;20048;-70
2022/01/20 05:44:05;;;;;;;2.30;0.40;;;14.80;49.20;13.90;101807.00;;;;5031486;28;20069;-70
2022/01/20 05:46:52;;;;;;;5.35;0.77;;;14.80;49.20;13.90;101812.00;;;;5015078;28;20067;-70
2022/01/20 05:49:36;;;;;;;4.18;0.90;;;14.80;49.20;13.90;101816.00;;;;5032729;28;20196;-70
2022/01/20 05:52:21;;;;;;;2.72;0.70;;;14.80;49.20;13.90;101817.00;;;;5029383;28;20052;-70
2022/01/20 05:55:05;;;;;;;3.30;0.60;;;14.80;49.20;13.90;101821.00;;;;5023980;28;20078;-70
2022/01/20 05:57:50;;;;;;;4.60;0.70;;;14.80;49.30;13.90;101826.00;;;;5028886;28;20048;-70
2022/01/20 06:00:36;;;;;;;2.88;0.80;;;14.80;49.20;13.90;101838.00;;;;5029810;28;20080;-70
2022/01/20 06:03:36;;;;;;;3.65;1.23;;;14.80;49.20;13.90;101829.00;;;;5027937;28;20047;-70
2022/01/20 06:06:21;;;;;;;3.17;0.60;;;14.80;49.30;13.90;101832.00;;;;5026853;28;20418;-70
2022/01/20 06:09:08;;;;;;;3.85;0.70;;;14.80;49.20;13.90;101833.00;;;;5034593;28;20599;-70
2022/01/20 06:11:52;;;;;;;3.25;0.70;;;14.80;49.20;13.90;101843.00;;;;5016148;28;20044;-70
2022/01/20 06:14:37;;;;;;;5.18;1.08;;;14.80;49.20;13.90;101843.00;;;;5027232;28;20060;-70
2022/01/20 06:17:27;;;;;;;3.50;0.93;;;14.80;49.20;13.90;101857.00;;;;5034314;28;20059;-70
2022/01/20 06:20:11;;;;;;;4.32;1.33;;;14.80;49.20;13.90;101854.00;;;;5026063;28;20535;-70
2022/01/20 06:22:56;;;;;;;4.43;0.90;;;14.80;49.20;13.90;101869.00;;;;5028335;28;20098;-70
2022/01/20 06:25:41;;;;;;;5.07;0.80;;;14.80;49.20;13.90;101886.00;;;;5031280;28;20343;-70
2022/01/20 06:28:26;;;;;;;5.20;0.68;;;14.80;49.10;13.90;101875.00;;;;5031415;28;20175;-70
2022/01/20 06:31:10;;;;;;;6.78;1.08;;;14.80;49.10;13.90;101880.00;;;;5032139;28;20112;-70
2022/01/20 06:33:55;;;;;;;5.15;0.82;;;14.80;49.00;13.90;101878.00;;;;5031242;28;20052;-70
2022/01/20 06:36:39;;;;;;;4.57;1.02;;;14.80;48.90;13.90;101881.00;;;;5026134;28;20044;-70
2022/01/20 06:39:24;;;;;;;4.65;0.93;;;14.80;48.90;13.90;101909.00;;;;5032292;28;20047;-70
2022/01/20 06:42:09;;;;;;;5.28;1.05;;;14.80;48.90;13.90;101908.00;;;;5027140;28;20136;-70
2022/01/20 06:44:53;;;;;;;4.82;0.98;;;14.80;48.90;13.90;101909.00;;;;5029740;28;20052;-70
2022/01/20 06:47:38;;;;;;;4.10;1.15;;;14.80;48.70;13.90;101917.00;;;;5029716;28;20115;-71
2022/01/20 06:50:23;;;;;;;6.30;0.90;;;14.80;48.80;13.90;101911.00;;;;5025636;28;20040;-69
2022/01/20 06:53:08;;;;;;;6.18;1.27;;;14.80;48.80;13.90;101932.00;;;;5025551;28;20556;-69
2022/01/20 06:55:52;;;;;;;4.53;0.95;;;14.80;48.80;13.90;101930.00;;;;5036534;28;20402;-69
2022/01/20 06:58:37;;;;;;;5.38;1.35;;;14.80;48.80;13.90;101943.00;;;;5027994;28;20378;-69
2022/01/20 07:01:21;;;;;;;6.05;1.23;;;14.80;48.70;13.90;101949.00;;;;5016613;28;20188;-69
2022/01/20 07:04:06;;;;;;;5.35;1.33;;;14.80;48.60;13.90;101942.00;;;;5028155;28;20053;-69
2022/01/20 07:06:50;;;;;;;4.60;1.33;;;14.80;48.70;13.90;101953.00;;;;5024956;28;20037;-69
2022/01/20 07:09:35;;;;;;;5.82;1.10;;;14.80;48.70;13.90;101943.00;;;;5029948;28;20091;-70
2022/01/20 07:12:19;;;;;;;4.47;1.20;;;14.80;48.60;13.90;101948.00;;;;5021488;28;20056;-69
2022/01/20 07:15:05;;;;;;;3.80;0.85;;;14.80;48.60;13.90;101936.00;;;;5026865;28;20056;-69
2022/01/20 07:17:49;;;;;;;3.95;0.90;;;14.80;48.50;13.90;101948.00;;;;5015294;28;20674;-69
2022/01/20 07:20:33;;;;;;;5.47;1.02;;;14.80;48.50;13.80;101956.00;;;;5023849;28;20075;-69
2022/01/20 07:23:18;;;;;;;2.90;0.95;;;14.80;48.60;13.80;101979.00;;;;5030033;28;20053;-69
2022/01/20 07:26:03;;;;;;;6.90;1.50;;;14.70;48.40;13.90;101972.00;;;;5028160;28;20064;-69
2022/01/20 07:28:48;;;;;;;5.57;0.98;;;14.80;48.40;13.80;101977.00;;;;5030727;28;20040;-69
2022/01/20 07:31:32;;;;;;;5.32;1.13;;;14.70;48.20;13.80;101976.00;;;;5026081;28;20099;-69
2022/01/20 07:34:17;;;;;;;4.32;0.80;;;14.80;48.40;13.80;101977.00;;;;5026540;28;20048;-69
2022/01/20 07:37:01;;;;;;;6.25;2.00;;;14.70;48.20;13.80;101988.00;;;;5026004;28;20577;-69
2022/01/20 07:39:46;;;;;;;3.75;0.98;;;14.70;48.90;13.80;101987.00;;;;5027661;28;20044;-70
2022/01/20 07:42:30;;;;;;;6.55;1.85;;;14.70;48.20;13.80;101985.00;;;;5021667;28;20040;-70
2022/01/20 07:45:17;;;;;;;4.43;0.98;;;14.70;48.20;13.80;101982.00;;;;5025822;28;20048;-69
2022/01/20 07:48:01;;;;;;;6.18;1.40;;;14.70;48.20;13.80;101994.00;;;;5029404;28;20036;-70
2022/01/20 07:50:46;;;;;;;4.30;1.55;;;14.70;48.20;13.80;101993.00;;;;5028506;28;20567;-69
2022/01/20 07:53:30;;;;;;;4.60;1.30;;;14.70;48.20;13.80;101991.00;;;;5029002;28;20402;-69
2022/01/20 07:56:15;;;;;;;4.88;0.98;;;14.70;48.20;13.80;101997.00;;;;5025063;28;20045;-70
2022/01/20 07:59:00;;;;;;;3.45;0.93;;;14.70;48.30;13.80;102001.00;;;;5027395;28;20103;-70
2022/01/20 08:01:44;;;;;;;3.85;1.05;;;14.70;48.30;13.80;102020.00;;;;5029093;28;20414;-70
2022/01/20 08:04:29;;;;;;;3.25;1.02;;;14.80;48.30;13.80;102022.00;;;;5027381;28;20040;-69
2022/01/20 08:07:13;;;;;;;4.25;0.90;;;14.70;48.20;13.80;102025.00;;;;5026903;28;20103;-69
2022/01/20 08:09:58;;;;;;;3.40;0.88;;;14.70;48.20;13.80;102033.00;;;;5028536;28;20044;-70
2022/01/20 08:12:43;;;;;;;2.85;1.02;;;14.70;48.20;13.80;102031.00;;;;5024505;28;20177;-69
2022/01/20 08:15:28;;;;;;;3.65;0.93;;;14.70;48.20;13.80;102035.00;;;;5025376;28;20068;-69
2022/01/20 08:18:12;;;;;;;5.47;1.10;;;14.80;48.20;13.80;102033.00;;;;5022073;28;20085;-69
2022/01/20 08:20:57;;;;;;;4.22;1.30;;;14.70;48.20;13.80;102021.00;;;;5013997;28;20067;-69
2022/01/20 08:23:41;;;;;;;4.20;0.80;;;14.80;48.20;13.80;102032.00;;;;5032713;28;20053;-69
2022/01/20 08:26:26;;;;;;;5.55;1.15;;;14.70;48.10;13.80;102019.00;;;;5029290;28;20459;-70
2022/01/20 08:29:10;;;;;;;5.65;1.40;;;14.70;48.10;13.80;102023.00;;;;5031538;28;20048;-70
2022/01/20 08:31:55;;;;;;;3.90;1.05;;;14.70;47.90;13.80;102033.00;;;;5029522;28;20114;-69
2022/01/20 08:34:39;;;;;;;3.88;1.13;;;14.70;47.80;13.80;102037.00;;;;5036159;28;20040;-70
2022/01/20 08:37:25;;;;;;;4.07;1.15;;;14.70;47.60;13.80;102050.00;;;;5029420;28;20449;-70
2022/01/20 08:40:14;;;;;;;6.38;1.10;;;14.70;47.60;13.80;102044.00;;;;5031686;28;20048;-70
2022/01/20 08:42:58;;;;;;;4.00;1.10;;;14.70;47.60;13.80;102037.00;;;;5027971;28;20160;-69
2022/01/20 08:45:44;;;;;;;3.00;1.00;;;14.70;47.70;13.80;102043.00;;;;5027859;28;20142;-69
2022/01/20 08:48:28;;;;;;;3.08;0.95;;;14.70;47.60;13.80;102028.00;;;;5034410;28;20044;-69
2022/01/20 08:51:13;;;;;;;4.78;1.35;;;14.70;47.70;13.70;102037.00;;;;5030282;28;20205;-69
2022/01/20 08:53:57;;;;;;;3.72;1.00;;;14.70;47.70;13.70;102041.00;;;;5031752;28;20048;-69
2022/01/20 08:56:42;;;;;;;4.10;0.98;;;14.70;47.70;13.70;102038.00;;;;5027101;28;20156;-69
2022/01/20 08:59:26;;;;;;;4.45;1.40;;;14.70;47.70;13.70;102053.00;;;;5034617;28;20080;-69
2022/01/20 09:02:11;;;;;;;3.83;0.70;;;14.60;47.60;13.70;102047.00;;;;5024588;28;20419;-69
2022/01/20 09:04:56;;;;;;;4.60;1.10;;;14.60;47.60;13.70;102061.00;;;;5032836;28;20048;-69
2022/01/20 09:07:40;;;;;;;3.50;0.77;;;14.60;47.60;13.70;102064.00;;;;5031021;28;20052;-69
2022/01/20 09:10:25;;;;;;;5.57;1.20;;;14.60;47.50;13.70;102067.00;;;;5014925;28;20043;-69
2022/01/20 09:16:13;;;;;;;6.75;1.35;;;14.60;47.50;13.70;102076.00;;;;5026964;28;20095;-69
2022/01/20 09:18:57;;;;;;;6.43;1.23;;;14.60;47.40;13.70;102079.00;;;;5033598;28;20031;-69
2022/01/20 09:21:42;;;;;;;5.88;1.23;;;14.60;47.40;13.70;102085.00;;;;5032355;28;20402;-69
2022/01/20 09:24:26;;;;;;;3.65;0.90;;;14.60;47.40;13.70;102097.00;;;;5034282;28;20043;-69
2022/01/20 09:27:12;;;;;;;6.20;1.50;;;14.60;47.40;13.70;102091.00;;;;5026311;28;20519;-69
2022/01/20 09:29:56;;;;;;;5.13;1.27;;;14.60;47.40;13.70;102091.00;;;;5031602;28;20098;-69
2022/01/20 09:32:40;;;;;;;4.20;1.05;;;14.50;47.30;13.60;102084.00;;;;5027849;28;20061;-69
2022/01/20 09:35:44;;;;;;;4.75;1.48;;;14.50;47.20;13.60;102079.00;;;;5026229;28;20116;-69
2022/01/20 09:38:28;;;;;;;5.72;1.08;;;14.50;47.20;13.60;102078.00;;;;5030051;28;20048;-69
2022/01/20 09:41:13;;;;;;;4.00;1.10;;;14.50;47.20;13.60;102081.00;;;;5027992;28;20052;-69
2022/01/20 09:43:57;;;;;;;6.53;1.08;;;14.50;47.20;13.60;102076.00;;;;5028165;28;20088;-69
2022/01/20 09:46:44;;;;;;;5.82;1.05;;;14.50;47.10;13.60;102071.00;;;;5011960;28;20498;-69
2022/01/20 09:49:28;;;;;;;5.28;1.13;;;14.50;47.20;13.60;102078.00;;;;5016788;28;20411;-69
2022/01/20 09:52:13;;;;;;;3.70;0.90;;;14.50;47.20;13.60;102077.00;;;;5029415;28;20048;-69
2022/01/20 09:54:57;;;;;;;6.78;1.20;;;14.50;47.10;13.60;102085.00;;;;5028129;28;20084;-69
2022/01/20 09:57:42;;;;;;;5.97;1.27;;;14.50;47.20;13.60;102087.00;;;;5031710;28;20549;-69
2022/01/20 10:00:27;;;;;;;2.92;0.95;;;14.50;47.30;13.60;102096.00;;;;5029483;28;20397;-69
2022/01/20 10:03:16;;;;;;;4.65;0.85;;;14.50;47.30;13.60;102104.00;;;;5031098;28;20048;-69
2022/01/20 10:06:01;;;;;;;4.72;1.00;;;14.50;47.30;13.60;102102.00;;;;5028717;28;20437;-69
2022/01/20 10:08:45;;;;;;;6.10;1.20;;;14.50;47.30;13.60;102109.00;;;;5037734;28;20061;-69
2022/01/20 10:11:30;;;;;;;4.15;1.08;;;14.50;47.20;13.60;102106.00;;;;5027003;28;20124;-69
2022/01/20 10:14:14;;;;;;;5.15;1.15;;;14.50;47.20;13.60;102114.00;;;;5023844;28;20390;-70
2022/01/20 10:16:59;;;;;;;4.38;1.25;;;14.50;47.30;13.60;102114.00;;;;5026744;28;20067;-70
2022/01/20 10:19:44;;;;;;;3.08;0.88;;;14.50;47.20;13.60;102118.00;;;;5027655;28;20051;-70
2022/01/20 10:22:28;;;;;;;5.15;1.20;;;14.50;47.30;13.60;102129.00;;;;5030870;28;20071;-70
2022/01/20 10:25:14;;;;;;;5.47;1.10;;;14.50;47.30;13.70;102119.00;;;;5027631;28;20048;-70
2022/01/20 10:27:58;;;;;;;5.63;1.10;;;14.50;47.30;13.70;102119.00;;;;5030231;28;20492;-70
2022/01/20 10:30:42;;;;;;;4.55;1.45;;;14.50;47.30;13.70;102116.00;;;;5031009;28;20386;-70
2022/01/20 10:33:27;;;;;;;5.43;1.30;;;14.50;47.30;13.70;102131.00;;;;5017951;28;20088;-70
2022/01/20 10:36:12;;;;;;;3.45;1.10;;;14.50;47.30;13.70;102126.00;;;;5026591;28;20072;-70
2022/01/20 10:38:58;;;;;;;3.70;0.70;;;14.50;47.20;13.70;102126.00;;;;5030314;28;20036;-70
2022/01/20 10:41:42;;;;;;;3.78;1.00;;;14.60;47.30;13.70;102130.00;;;;5028544;28;20048;-70
2022/01/20 10:44:27;;;;;;;4.78;1.17;;;14.60;47.20;13.70;102131.00;;;;5028965;28;20053;-70
2022/01/20 10:47:17;;;;;;;4.70;1.17;;;14.60;47.20;13.70;102134.00;;;;5028018;28;20040;-70
2022/01/20 10:50:09;;;;;;;5.55;1.33;;;14.60;47.10;13.60;102128.00;;;;5026209;28;20116;-70
2022/01/20 10:52:54;;;;;;;8.73;1.55;;;14.60;47.00;13.60;102132.00;;;;5031424;28;20120;-70
2022/01/20 10:55:38;;;;;;;8.05;1.30;;;14.60;47.10;13.60;102126.00;;;;5035686;28;20052;-71
2022/01/20 10:58:23;;;;;;;4.20;0.82;;;14.50;47.00;13.60;102120.00;;;;5024755;28;20103;-70
2022/01/20 11:01:16;;;;;;;2.70;1.05;;;14.50;47.00;13.60;102129.00;;;;5024259;28;20051;-70
2022/01/20 11:04:03;;;;;;;3.45;0.95;;;14.60;46.90;13.60;102132.00;;;;5029161;28;20133;-70
2022/01/20 11:06:52;;;;;;;5.18;1.38;;;14.60;47.00;13.60;102137.00;;;;5026365;28;20117;-70
2022/01/20 11:09:41;;;;;;;5.22;1.27;;;14.50;46.80;13.60;102142.00;;;;5027016;28;20422;-70
2022/01/20 11:12:25;;;;;;;7.38;1.50;;;14.60;46.90;13.60;102132.00;;;;5022341;28;20032;-70
2022/01/20 11:15:13;;;;;;;5.32;1.10;;;14.60;46.90;13.60;102126.00;;;;5027817;28;20079;-70
2022/01/20 11:17:58;;;;;;;6.60;1.50;;;14.50;46.80;13.60;102107.00;;;;5028849;28;20564;-70
2022/01/20 11:20:52;;;;;;;3.25;0.82;;;14.50;46.70;13.60;102112.00;;;;5024223;28;20048;-70
2022/01/20 11:23:42;;;;;;;5.35;1.13;;;14.50;46.70;13.60;102116.00;;;;5019204;28;20088;-70
2022/01/20 11:26:26;;;;;;;4.07;1.35;;;14.50;46.70;13.60;102110.00;;;;5027363;28;20067;-70
2022/01/20 11:29:10;;;;;;;8.40;1.13;;;14.50;46.60;13.60;102101.00;;;;5019452;28;20474;-70
2022/01/20 11:31:55;;;;;;;5.35;1.23;;;14.50;46.60;13.60;102102.00;;;;5026755;28;20039;-70
2022/01/20 11:34:40;;;;;;;3.88;1.10;;;14.50;46.60;13.60;102105.00;;;;5030585;28;20056;-70
2022/01/20 11:37:26;;;;;;;3.72;1.27;;;14.50;46.60;13.60;102110.00;;;;5021395;28;20052;-70
2022/01/20 11:40:19;;;;;;;5.88;1.48;;;14.50;46.70;13.60;102101.00;;;;5026160;28;20076;-70
2022/01/20 11:43:09;;;;;;;5.90;1.60;;;14.50;46.70;13.60;102085.00;;;;5010669;28;20095;-70
2022/01/20 11:46:15;;;;;;;2.55;0.95;;;14.50;46.80;13.60;102092.00;;;;5024932;28;20076;-70
2022/01/20 11:49:09;;;;;;;9.27;1.08;;;14.50;46.60;13.60;102082.00;;;;5027386;28;20498;-70
2022/01/20 11:51:58;;;;;;;5.85;1.67;;;14.50;46.80;13.60;102092.00;;;;5010560;28;20059;-70
2022/01/20 11:54:43;;;;;;;2.63;0.82;;;14.50;46.70;13.60;102091.00;;;;5007539;28;20048;-70
2022/01/20 11:57:31;;;;;;;4.75;1.00;;;14.50;46.80;13.60;102100.00;;;;5032705;28;20111;-70
2022/01/20 12:00:26;;;;;;;4.80;0.90;;;14.50;46.70;13.60;102104.00;;;;5031717;28;20048;-70
2022/01/20 12:03:14;;;;;;;4.05;1.05;;;14.50;46.70;13.70;102118.00;;;;5027414;28;20048;-70
2022/01/20 12:06:09;;;;;;;4.55;1.00;;;14.50;46.70;13.70;102117.00;;;;5027101;28;20385;-70
2022/01/20 12:09:03;;;;;;;4.18;0.88;;;14.50;46.70;13.70;102125.00;;;;5029385;28;20075;-70
2022/01/20 12:11:47;;;;;;;5.07;1.10;;;14.60;46.90;13.70;102117.00;;;;5026686;28;20036;-70
2022/01/20 12:14:36;;;;;;;4.47;1.08;;;14.60;46.80;13.70;102110.00;;;;5030589;28;20239;-70
2022/01/20 12:17:21;;;;;;;4.80;1.00;;;14.60;46.80;13.70;102101.00;;;;5026883;28;20486;-70
2022/01/20 12:20:06;;;;;;;4.20;0.93;;;14.60;46.80;13.70;102103.00;;;;5028117;28;20063;-70
2022/01/20 12:22:51;;;;;;;4.47;0.90;;;14.60;46.80;13.70;102099.00;;;;5027400;28;20053;-70
2022/01/20 12:25:36;;;;;;;4.43;1.40;;;14.60;46.90;13.70;102098.00;;;;5030261;28;20044;-70
2022/01/20 12:28:20;;;;;;;2.72;0.98;;;14.60;46.90;13.70;102089.00;;;;5030503;28;20096;-70
2022/01/20 12:31:06;;;;;;;4.93;0.73;;;14.60;46.80;13.70;102081.00;;;;5025535;28;20561;-70
2022/01/20 12:33:53;;;;;;;4.90;1.17;;;14.60;46.80;13.70;102083.00;;;;5031099;28;20132;-70
2022/01/20 12:36:39;;;;;;;3.45;0.82;;;14.60;46.70;13.70;102091.00;;;;5022188;28;20888;-70
2022/01/20 12:39:28;;;;;;;4.20;1.17;;;14.60;46.70;13.70;102091.00;;;;5024882;28;20096;-70
2022/01/20 12:42:12;;;;;;;4.53;1.00;;;14.70;46.70;13.70;102084.00;;;;5021646;28;20040;-70
2022/01/20 12:45:55;;;;;;;1.95;0.73;;;14.60;46.80;13.70;102091.00;;;;5026512;28;20088;-70
2022/01/20 12:48:14;;;;;;;4.32;0.80;;;14.70;46.70;13.70;102099.00;;;;5018326;28;20123;-70
2022/01/20 12:51:06;;;;;;;2.70;0.90;;;14.70;46.80;13.70;102094.00;;;;5023494;28;20037;-70
2022/01/20 12:53:58;;;;;;;5.80;1.20;;;14.70;46.70;13.70;102083.00;;;;5025000;28;20087;-70
2022/01/20 12:56:48;;;;;;;3.95;0.93;;;14.70;46.70;13.70;102083.00;;;;5023761;28;20076;-70
2022/01/20 12:59:36;;;;;;;1.75;0.80;;;14.70;46.80;13.70;102088.00;;;;5020060;28;20044;-70
2022/01/20 13:02:24;;;;;;;3.65;1.05;;;14.70;46.70;13.70;102098.00;;;;5021551;28;20053;-70
2022/01/20 13:05:09;;;;;;;3.58;0.88;;;14.70;46.80;13.70;102101.00;;;;5025287;28;20205;-70
2022/01/20 13:07:53;;;;;;;2.15;0.63;;;14.70;46.80;13.80;102104.00;;;;5014160;28;20079;-70
2022/01/20 13:10:39;;;;;;;4.32;0.75;;;14.70;46.80;13.70;102097.00;;;;5027708;28;20408;-70
2022/01/20 13:13:23;;;;;;;2.33;0.82;;;14.70;46.80;13.80;102095.00;;;;5017712;28;20108;-70